< Cyclone 198511 1985 Season Cyclone 198513 >
Cyclone 198512 (KIRSTY)
General InformationTrack Information on Google MapsDetailed Wind InformationList of All Images || ResourceGoogle EarthGE AnimationAtom FeedGeoJSON
Detalied Best Track (Time Zone = UTC)
Year Month Day Hour Lat. Long. Pressure (hPa) Wind (kt) Class Image Chart
1985 3 1 00 -10.4 112.0 1006 21 2 Image --
1985 3 1 06 -10.4 110.3 1004 21 2 Image --
1985 3 1 12 -10.4 110.3 1004 21 2 Image --
1985 3 1 18 -10.4 109.6 1004 21 2 Image --
1985 3 2 00 -10.3 108.7 1005 21 2 Image --
1985 3 2 06 -10.2 107.7 1003 23 2 Image --
1985 3 2 09 -10.2 107.3 1003 23 2 Image --
1985 3 2 12 -10.1 106.9 1004 21 2 Image --
1985 3 2 16 -10.0 106.3 1004 21 2 Image --
1985 3 2 18 -10.0 106.0 1004 21 2 Image --
1985 3 2 21 -10.0 105.6 1005 21 2 Image --
1985 3 3 00 -10.0 105.2 1005 21 2 Image --
1985 3 3 03 -10.0 104.8 1003 23 2 Image --
1985 3 3 06 -10.0 104.4 1002 25 2 Image --
1985 3 3 09 -10.0 104.0 1002 25 2 Image --
1985 3 3 12 -10.0 103.6 1002 25 2 Image --
1985 3 3 16 -10.1 103.0 1002 25 2 Image --
1985 3 3 18 -10.1 102.7 1003 23 2 Image --
1985 3 4 00 -10.1 101.9 1003 23 2 Image --
1985 3 4 06 -10.1 101.3 1002 23 2 Image --
1985 3 4 12 -10.1 100.7 1002 25 2 Image --
1985 3 4 18 -10.2 100.1 1002 25 2 Image --
1985 3 5 00 -10.2 99.5 1002 25 2 Image --
1985 3 5 06 -10.3 98.7 1001 27 2 Image --
1985 3 5 09 -10.4 98.3 999 31 2 Image --
1985 3 5 12 -10.4 97.9 999 31 2 Image --
1985 3 5 16 -10.4 97.3 998 33 2 Image --
1985 3 5 18 -10.5 97.0 997 35 3 Image --
1985 3 5 21 -10.5 96.5 997 35 3 Image --
1985 3 6 00 -10.5 95.9 997 35 3 Image --
1985 3 6 03 -10.6 95.3 995 39 3 Image --
1985 3 6 06 -10.7 94.7 993 43 3 Image --
1985 3 6 12 -10.9 93.9 990 45 3 Image --
1985 3 6 18 -11.2 93.0 988 51 4 Image --
1985 3 7 00 -11.6 92.4 986 53 4 Image --
1985 3 7 06 -12.1 91.7 982 58 4 Image --
1985 3 7 12 -12.7 90.6 978 64 5 Image --
1985 3 7 18 -13.1 89.3 975 66 5 Image --
1985 3 8 00 -13.4 88.5 970 74 5 Image --
1985 3 8 06 -13.4 87.7 966 78 5 Image --
1985 3 8 12 -13.5 87.1 954 91 5 Image --
1985 3 8 18 -13.8 86.4 950 93 5 Image --
1985 3 9 00 -14.1 86.0 941 103 5 Image --
1985 3 9 06 -14.6 85.4 920 123 5 Image --
1985 3 9 12 -15.2 85.1 920 123 5 Image --
1985 3 9 18 -15.8 84.8 920 123 5 Image --
1985 3 10 00 -16.4 84.8 920 123 5 Image --
1985 3 10 06 -17.1 84.8 923 119 5 Image --
1985 3 10 12 -17.9 84.9 941 108 0 Image --
1985 3 10 18 -18.5 84.9 947 97 5 Image --
1985 3 11 00 -18.9 85.0 954 91 5 Image --
1985 3 11 06 -19.1 85.0 963 82 5 Image --
1985 3 11 12 -19.4 85.1 971 74 5 Image --
1985 3 11 18 -19.8 85.2 976 66 5 Image --
1985 3 12 00 -20.2 85.3 976 66 5 Image --
1985 3 12 06 -20.6 85.7 976 66 5 Image --
1985 3 12 12 -21.2 85.9 976 66 5 Image --
1985 3 12 18 -21.9 86.2 976 66 5 Image --
1985 3 13 00 -22.5 86.6 976 66 5 Image --
1985 3 13 06 -23.2 87.2 978 64 5 Image --
1985 3 13 12 -23.9 87.9 982 58 4 Image --
1985 3 13 18 -24.4 88.6 984 54 4 Image --
1985 3 14 00 -24.8 89.6 986 53 4 Image --
1985 3 14 06 -25.2 90.8 988 51 4 Image --
1985 3 14 12 -25.7 92.0 990 47 3 Image --
1985 3 14 18 -26.2 93.2 991 45 3 Image --
1985 3 15 00 -26.8 94.4 992 43 3 Image --
1985 3 15 06 -27.3 95.6 993 43 3 Image --
1985 3 15 12 -27.8 96.6 994 39 3 Image --
1985 3 15 18 -28.3 97.3 994 39 3 Image --
1985 3 16 00 -28.8 98.1 995 39 3 Image --
1985 3 16 06 -29.4 98.9 997 35 3 Image --
1985 3 16 12 -30.1 99.5 998 33 2 Image --
1985 3 16 18 -30.9 100.1 999 31 2 Image --
1985 3 17 00 -32.0 100.8 1000 31 2 Image --
1985 3 17 06 -33.2 101.8 1002 27 2 Image --
1985 3 17 12 -33.6 103.6 1003 23 2 Image --
1985 3 17 18 -34.0 105.5 1004 21 2 Image --
1985 3 18 00 -34.4 107.5 1005 21 2 Image --
1985 3 18 06 -34.6 109.7 1006 19 2 Image --
1985 3 18 12 -34.5 111.4 1008 16 2 Image --
1985 3 18 18 -34.2 112.4 1010 12 2 Image --
1985 3 19 00 -33.5 113.0 1012 10 2 Image --
< Cyclone 198511 1985 Season Cyclone 198513 >

Help